Lockport, NY

12:25 AM EST on January 25, 2015 (GMT -0500)
Chautauqua County-Dunkirk | Change Station
CLOSE
Current Station
Airport
Location: Dunkirk,
Elevation: 692 ft
Nearby Weather Stations

Elev 692 ft 42.49 °N, 79.28 °W | Updated 32 minutes ago

Overcast
Overcast
32 °F
Feels Like 22 °F
N
15
Wind Variable Wind from WSW

Today
High -- | Low -- °F
--% Chance of Precip.
Yesterday
High -- | Low -- °F
Precip. -- in
7:37 AM 5:17 PM
Waxing Crescent, 28% visible
Pressure 29.60 in
Visibility 3.0 miles
Clouds Overcast 500 ft
Windchill 22 °F
Dew Point 30 °F
Humidity 92%
Rainfall 0.02 in
Snow Depth Not available.
UV 0 out of 12
Pollen .10 out of 12
Air Quality Not available.
Flu Activity Not available.
METAR KDKK 250453Z AUTO 25013KT 3SM BR OVC005 00/M01 A2957 RMK AO2 SLP022 T00001011 400001056

More Conditions Fewer Conditions

Pressure 29.60 in
Visibility 3.0 miles
Clouds Overcast 500 ft
Windchill 22 °F
Dew Point 30 °F
Humidity 92%
Rainfall 0.02 in
Snow Depth Not available.
UV 0 out of 12
Pollen .10 out of 12
Air Quality Not available.
Flu Activity Not available.
METAR KDKK 250453Z AUTO 25013KT 3SM BR OVC005 00/M01 A2957 RMK AO2 SLP022 T00001011 400001056

More Conditions Fewer Conditions

10-Day Weather Forecast

Almanac

Astronomy

Jan. 25, 2015 Rise Set
Actual Time
Civil Twilight
Nautical Twilight
Astronomical Twilight
Moon
Length of Visible Light
Length of Day
Tomorrow will be .
, % of the Moon is Illuminated

Today's Extremes

State Highs State Lows

Community

WunderPhotos

Upload Photos

1,789,843 photos uploaded!

WunderBlogs® & News

Nearby

Air Quality

  Air Quality AQ Index Pollutant
Not available.

Snow Depth

Station Depth Elevation

Earthquake Activity

City Distance Mag. Time & Date
Minimum magnitude displayed is 2.5.

Coastal Water Temperatures

Place Temperature

Nearby Weather Stations